createdAt,value
2018-08-20T00:00:15.094Z,85.30
2018-08-20T00:02:43.620Z,84.72
2018-08-20T00:05:12.153Z,84.76
2018-08-20T00:07:40.713Z,83.98
2018-08-20T00:10:10.844Z,83.40
2018-08-20T00:12:39.438Z,86.42
2018-08-20T00:15:08.025Z,87.37
2018-08-20T00:17:36.578Z,85.51
2018-08-20T00:20:05.847Z,84.84
2018-08-20T00:22:34.470Z,87.30
2018-08-20T00:25:11.640Z,87.80
2018-08-20T00:27:40.232Z,86.90
2018-08-20T00:30:11.720Z,86.20
2018-08-20T00:32:41.544Z,85.41
2018-08-20T00:35:10.468Z,84.58
2018-08-20T00:37:39.028Z,84.26
2018-08-20T00:40:07.544Z,84.74
2018-08-20T00:42:36.085Z,84.23
2018-08-20T00:45:05.872Z,85.01
2018-08-20T00:47:34.516Z,85.41
2018-08-20T00:50:03.032Z,84.08
2018-08-20T00:52:31.626Z,85.40
2018-08-20T00:55:00.152Z,87.88
2018-08-20T00:57:28.709Z,86.41
2018-08-20T00:59:57.232Z,85.16
2018-08-20T01:02:29.272Z,86.77
2018-08-20T01:04:58.565Z,86.01
2018-08-20T01:07:27.831Z,86.13
2018-08-20T01:09:56.957Z,85.57
2018-08-20T01:12:26.289Z,86.26
2018-08-20T01:14:54.872Z,87.25
2018-08-20T01:17:23.444Z,86.60
2018-08-20T01:19:52.029Z,87.18
2018-08-20T01:22:21.000Z,85.57
2018-08-20T01:24:49.628Z,84.54
2018-08-20T01:27:23.425Z,87.24
2018-08-20T01:29:52.493Z,87.15
2018-08-20T01:32:21.088Z,87.84
2018-08-20T01:34:49.688Z,88.98
2018-08-20T01:37:19.544Z,89.26
2018-08-20T01:39:48.667Z,91.40
2018-08-20T01:42:17.829Z,92.09
2018-08-20T01:44:47.359Z,92.00
2018-08-20T01:47:15.897Z,90.06
2018-08-20T01:49:44.474Z,88.70
2018-08-20T01:52:13.049Z,87.50
2018-08-20T01:54:41.620Z,88.94
2018-08-20T01:57:10.160Z,88.66
2018-08-20T01:59:39.102Z,87.88
2018-08-20T02:02:07.685Z,89.41
2018-08-20T02:04:36.285Z,90.23
2018-08-20T02:07:04.953Z,88.03
2018-08-20T02:09:33.500Z,88.15
2018-08-20T02:12:02.131Z,88.79
2018-08-20T02:14:30.713Z,90.28
2018-08-20T02:16:59.371Z,91.57
2018-08-20T02:19:27.919Z,90.18
2018-08-20T02:21:56.487Z,88.91
2018-08-20T02:24:25.021Z,87.20
2018-08-20T02:26:53.578Z,88.32
2018-08-20T02:29:22.123Z,91.54
2018-08-20T02:31:50.720Z,91.86
2018-08-20T02:34:19.252Z,89.47
2018-08-20T02:36:47.852Z,91.75
2018-08-20T02:39:16.418Z,90.30
2018-08-20T02:41:44.991Z,90.47
2018-08-20T02:44:13.956Z,89.90
2018-08-20T02:46:50.973Z,90.02
2018-08-20T02:49:19.661Z,91.49
2018-08-20T02:51:49.016Z,90.30
2018-08-20T02:54:17.636Z,92.84
2018-08-20T02:56:46.233Z,92.75
2018-08-20T02:59:15.495Z,91.46
2018-08-20T03:01:44.089Z,88.96
2018-08-20T03:04:12.639Z,90.07
2018-08-20T03:06:41.188Z,88.95
2018-08-20T03:09:12.505Z,91.68
2018-08-20T03:11:41.052Z,91.43
2018-08-20T03:14:09.862Z,91.26
2018-08-20T03:16:38.836Z,90.98
2018-08-20T03:19:08.075Z,89.73
2018-08-20T03:21:36.653Z,91.18
2018-08-20T03:24:05.404Z,88.44
2018-08-20T03:26:33.937Z,89.11
2018-08-20T03:29:02.501Z,89.60
2018-08-20T03:31:31.253Z,92.77
2018-08-20T03:33:59.931Z,92.66
2018-08-20T03:36:28.472Z,94.38
2018-08-20T03:38:57.056Z,94.83
2018-08-20T03:41:25.612Z,93.05
2018-08-20T03:43:54.200Z,92.48
2018-08-20T03:46:22.808Z,90.60
2018-08-20T03:48:51.387Z,91.38
2018-08-20T03:51:19.936Z,92.07
2018-08-20T03:53:48.545Z,94.56
2018-08-20T03:56:17.067Z,93.72
2018-08-20T03:58:45.632Z,93.14
2018-08-20T04:01:14.183Z,93.12
2018-08-20T04:03:42.726Z,91.69
2018-08-20T04:06:11.238Z,92.38
2018-08-20T04:08:39.780Z,93.83
2018-08-20T04:11:08.426Z,94.50
2018-08-20T04:13:37.004Z,92.60
2018-08-20T04:16:05.541Z,92.51
2018-08-20T04:18:34.052Z,94.19
2018-08-20T04:21:02.594Z,92.50
2018-08-20T04:23:31.168Z,93.75
2018-08-20T04:25:59.726Z,91.98
2018-08-20T04:28:28.264Z,90.04
2018-08-20T04:30:56.842Z,91.32
2018-08-20T04:33:25.361Z,90.89
2018-08-20T04:35:53.903Z,88.77
2018-08-20T04:38:22.478Z,88.95
2018-08-20T04:40:51.032Z,90.82
2018-08-20T04:43:19.549Z,92.35
2018-08-20T04:45:48.101Z,94.01
2018-08-20T04:48:16.654Z,95.36
2018-08-20T04:50:45.288Z,94.69
2018-08-20T04:53:13.788Z,93.79
2018-08-20T04:55:42.346Z,92.08
2018-08-20T04:58:10.856Z,92.16
2018-08-20T05:00:39.370Z,90.33
2018-08-20T05:03:11.912Z,91.03
2018-08-20T05:05:40.433Z,93.12
2018-08-20T05:08:15.778Z,92.48
2018-08-20T05:10:44.434Z,94.01
2018-08-20T05:15:57.960Z,91.02
2018-08-20T05:18:26.488Z,91.68
2018-08-20T05:20:55.447Z,92.76
2018-08-20T05:23:24.033Z,93.50
2018-08-20T05:25:52.547Z,92.27
2018-08-20T05:28:21.113Z,90.34
2018-08-20T05:30:49.780Z,88.95
2018-08-20T05:33:18.702Z,90.34
2018-08-20T05:35:47.342Z,91.02
2018-08-20T05:38:15.928Z,91.79
2018-08-20T05:40:44.428Z,91.54
2018-08-20T05:43:12.978Z,91.01
2018-08-20T05:45:41.494Z,91.13
2018-08-20T05:48:10.080Z,90.18
2018-08-20T05:50:39.228Z,90.07
2018-08-20T05:53:07.877Z,89.99
2018-08-20T05:55:36.399Z,89.35
2018-08-20T05:58:04.969Z,89.72
2018-08-20T06:00:33.488Z,89.16
2018-08-20T06:03:02.049Z,89.27
2018-08-20T06:05:30.561Z,88.65
2018-08-20T06:07:59.196Z,87.54
2018-08-20T06:10:27.734Z,87.64
2018-08-20T06:12:56.260Z,87.23
2018-08-20T06:15:24.900Z,87.11
2018-08-20T06:17:53.378Z,86.51
2018-08-20T06:20:21.945Z,86.46
2018-08-20T06:22:50.467Z,86.32
2018-08-20T06:25:19.028Z,86.47
2018-08-20T06:27:47.560Z,87.00
2018-08-20T06:30:18.077Z,86.32
2018-08-20T06:32:46.805Z,86.04
2018-08-20T06:35:15.394Z,85.41
2018-08-20T06:37:43.937Z,84.17
2018-08-20T06:40:14.175Z,83.71
2018-08-20T06:42:42.740Z,84.84
2018-08-20T06:45:16.645Z,83.65
2018-08-20T06:47:45.878Z,84.32
2018-08-20T06:50:15.132Z,84.36
2018-08-20T06:52:44.726Z,84.57
2018-08-20T06:55:14.360Z,83.47
2018-08-20T06:57:43.925Z,82.36
2018-08-20T07:00:12.747Z,80.66
2018-08-20T07:02:41.458Z,80.76
2018-08-20T07:05:10.420Z,80.17
2018-08-20T07:07:40.612Z,79.81
2018-08-20T07:10:14.772Z,79.33
2018-08-20T07:12:44.196Z,79.22
2018-08-20T07:15:14.510Z,79.23
2018-08-20T07:17:47.105Z,78.24
2018-08-20T07:20:16.694Z,77.97
2018-08-20T07:22:45.309Z,77.48
2018-08-20T07:25:13.905Z,77.28
2018-08-20T07:27:42.504Z,77.21
2018-08-20T07:30:11.912Z,75.76
2018-08-20T07:32:40.501Z,76.79
2018-08-20T07:35:09.684Z,76.00
2018-08-20T07:37:38.244Z,76.51
2018-08-20T07:40:07.893Z,76.62
2018-08-20T07:42:36.534Z,75.99
2018-08-20T07:45:05.112Z,75.78
2018-08-20T07:47:33.680Z,75.81
2018-08-20T07:50:02.271Z,75.38
2018-08-20T07:52:30.896Z,75.31
2018-08-20T07:54:59.424Z,75.26
2018-08-20T07:57:27.977Z,74.74
2018-08-20T07:59:56.496Z,74.67
2018-08-20T08:02:25.116Z,74.81
2018-08-20T08:04:53.676Z,74.77
2018-08-20T08:07:22.245Z,75.14
2018-08-20T08:09:50.764Z,75.12
2018-08-20T08:12:19.313Z,74.93
2018-08-20T08:14:47.893Z,74.72
2018-08-20T08:17:16.440Z,74.32
2018-08-20T08:19:45.072Z,75.33
2018-08-20T08:22:13.611Z,74.68
2018-08-20T08:24:42.161Z,74.62
2018-08-20T08:27:10.768Z,74.66
2018-08-20T08:29:39.833Z,74.01
2018-08-20T08:32:11.331Z,75.18
2018-08-20T08:34:39.889Z,74.65
2018-08-20T08:37:08.474Z,74.24
2018-08-20T08:39:36.997Z,74.58
2018-08-20T08:42:05.571Z,74.63
2018-08-20T08:44:34.135Z,75.29
2018-08-20T08:47:02.928Z,74.14
2018-08-20T08:49:31.484Z,74.83
2018-08-20T08:52:00.144Z,74.32
2018-08-20T08:54:28.716Z,74.74
2018-08-20T08:56:57.261Z,74.92
2018-08-20T08:59:25.838Z,73.73
2018-08-20T09:01:54.388Z,74.13
2018-08-20T09:04:22.980Z,73.75
2018-08-20T09:06:51.584Z,73.88
2018-08-20T09:09:20.181Z,74.49
2018-08-20T09:11:48.709Z,73.85
2018-08-20T09:14:17.292Z,73.96
2018-08-20T09:16:45.820Z,74.64
2018-08-20T09:19:14.393Z,73.98
2018-08-20T09:21:42.997Z,73.25
2018-08-20T09:24:17.668Z,73.46
2018-08-20T09:26:46.212Z,74.17
2018-08-20T09:29:14.792Z,74.85
2018-08-20T09:31:43.356Z,73.78
2018-08-20T09:34:11.877Z,74.35
2018-08-20T09:36:40.449Z,74.61
2018-08-20T09:44:01.688Z,73.30
2018-08-20T09:46:30.512Z,73.98
2018-08-20T09:48:59.042Z,73.23
2018-08-20T09:51:27.604Z,73.42
2018-08-20T09:53:56.148Z,74.65
2018-08-20T09:56:24.765Z,74.15
2018-08-20T09:58:53.297Z,73.40
2018-08-20T10:01:21.832Z,71.56
2018-08-20T10:03:50.336Z,70.87
2018-08-20T10:06:18.910Z,71.04
2018-08-20T10:08:47.433Z,71.88
2018-08-20T10:11:15.985Z,71.57
2018-08-20T10:13:44.514Z,70.48
2018-08-20T10:16:13.071Z,69.10
2018-08-20T10:18:41.613Z,68.94
2018-08-20T10:21:11.771Z,71.18
2018-08-20T10:23:40.300Z,70.53
2018-08-20T10:26:08.866Z,70.16
2018-08-20T10:28:37.376Z,70.27
2018-08-20T10:31:05.933Z,69.89
2018-08-20T10:33:34.496Z,69.55
2018-08-20T10:36:03.127Z,67.17
2018-08-20T10:38:31.700Z,69.13
2018-08-20T10:41:00.229Z,67.10
2018-08-20T10:43:28.776Z,68.14
2018-08-20T10:46:02.667Z,66.60
2018-08-20T10:48:37.754Z,66.88
2018-08-20T10:51:06.370Z,67.04
2018-08-20T10:53:35.008Z,65.85
2018-08-20T10:56:03.565Z,66.15
2018-08-20T10:58:32.109Z,64.54
2018-08-20T11:01:00.621Z,65.99
2018-08-20T11:03:29.189Z,66.08
2018-08-20T11:05:57.738Z,64.48
2018-08-20T11:08:26.287Z,63.13
2018-08-20T11:10:54.866Z,62.96
2018-08-20T11:13:23.352Z,62.60
2018-08-20T11:15:51.879Z,63.04
2018-08-20T11:18:20.509Z,63.47
2018-08-20T11:20:48.991Z,61.15
2018-08-20T11:23:17.528Z,59.81
2018-08-20T11:25:46.062Z,59.47
2018-08-20T11:28:15.150Z,59.98
2018-08-20T11:30:43.686Z,61.03
2018-08-20T11:33:12.261Z,60.15
2018-08-20T11:35:41.044Z,61.46
2018-08-20T11:38:09.561Z,59.03
2018-08-20T11:40:38.104Z,59.89
2018-08-20T11:43:07.002Z,60.29
2018-08-20T11:45:35.550Z,60.25
2018-08-20T11:48:04.124Z,59.33
2018-08-20T11:50:33.825Z,59.59
2018-08-20T11:53:04.645Z,58.94
2018-08-20T11:55:35.823Z,58.42
2018-08-20T11:58:09.528Z,58.36
2018-08-20T12:00:39.461Z,58.25
2018-08-20T12:03:09.887Z,57.90
2018-08-20T12:05:43.911Z,56.26
2018-08-20T12:08:15.504Z,56.67
2018-08-20T12:10:53.765Z,58.02
2018-08-20T12:13:29.412Z,57.25
2018-08-20T12:16:00.958Z,57.48
2018-08-20T12:18:34.147Z,57.13
2018-08-20T12:21:06.147Z,57.29
2018-08-20T12:23:38.099Z,56.32
2018-08-20T12:26:15.076Z,55.09
2018-08-20T12:28:44.317Z,54.06
2018-08-20T12:31:14.783Z,53.93
2018-08-20T12:33:44.391Z,55.81
2018-08-20T12:36:19.549Z,53.87
2018-08-20T12:38:53.561Z,53.21
2018-08-20T12:41:24.036Z,51.64
2018-08-20T12:43:56.125Z,50.71
2018-08-20T12:46:24.685Z,51.52
2018-08-20T12:48:58.023Z,51.27
2018-08-20T12:51:32.072Z,52.21
2018-08-20T12:54:03.136Z,52.03
2018-08-20T12:56:36.469Z,50.35
2018-08-20T12:59:09.936Z,51.84
2018-08-20T13:01:41.465Z,51.31
2018-08-20T13:04:15.244Z,48.73
2018-08-20T13:06:46.579Z,48.98
2018-08-20T13:09:19.359Z,47.99
2018-08-20T13:11:53.700Z,48.98
2018-08-20T13:14:27.780Z,49.52
2018-08-20T13:16:58.481Z,50.63
2018-08-20T13:19:30.138Z,51.47
2018-08-20T13:22:08.047Z,49.35
2018-08-20T13:24:38.900Z,48.45
2018-08-20T13:27:12.073Z,48.64
2018-08-20T13:29:53.829Z,48.86
2018-08-20T13:32:27.379Z,49.06
2018-08-20T13:35:07.886Z,49.87
2018-08-20T13:37:38.190Z,49.41
2018-08-20T13:40:09.372Z,49.56
2018-08-20T13:42:40.214Z,48.88
2018-08-20T13:45:10.690Z,48.81
2018-08-20T13:47:40.172Z,48.58
2018-08-20T13:50:15.310Z,50.30
2018-08-20T13:52:46.377Z,49.28
2018-08-20T13:55:14.932Z,49.33
2018-08-20T13:57:46.569Z,48.24
2018-08-20T14:00:16.772Z,49.79
2018-08-20T14:02:45.329Z,49.38
2018-08-20T14:05:14.662Z,48.86
2018-08-20T14:07:43.208Z,50.21
2018-08-20T14:10:12.352Z,49.04
2018-08-20T14:12:42.392Z,50.64
2018-08-20T14:15:13.016Z,51.14
2018-08-20T14:17:43.006Z,49.94
2018-08-20T14:20:13.800Z,51.43
2018-08-20T14:22:43.032Z,51.09
2018-08-20T14:25:12.120Z,51.27
2018-08-20T14:27:40.593Z,50.65
2018-08-20T14:30:11.596Z,50.77
2018-08-20T14:32:40.350Z,51.20
2018-08-20T14:35:12.361Z,50.79
2018-08-20T14:37:42.109Z,51.26
2018-08-20T14:40:18.431Z,51.84
2018-08-20T14:42:47.230Z,51.49
2018-08-20T14:45:16.684Z,51.63
2018-08-20T14:47:45.958Z,52.51
2018-08-20T14:50:16.523Z,51.67
2018-08-20T14:52:45.113Z,52.12
2018-08-20T14:55:14.102Z,51.76
2018-08-20T14:57:42.628Z,51.30
2018-08-20T15:00:13.732Z,49.54
2018-08-20T15:02:43.437Z,50.02
2018-08-20T15:05:12.295Z,50.10
2018-08-20T15:12:34.070Z,50.81
2018-08-20T15:15:02.964Z,50.87
2018-08-20T15:17:31.481Z,51.55
2018-08-20T15:20:00.014Z,51.74
2018-08-20T15:22:34.883Z,52.08
2018-08-20T15:25:03.469Z,52.37
2018-08-20T15:27:33.084Z,52.09
2018-08-20T15:30:02.067Z,52.68
2018-08-20T15:32:39.037Z,52.67
2018-08-20T15:35:10.109Z,52.18
2018-08-20T15:37:43.224Z,52.35
2018-08-20T15:40:12.124Z,53.33
2018-08-20T15:42:40.684Z,53.91
2018-08-20T15:45:13.796Z,54.28
2018-08-20T15:47:43.040Z,54.88
2018-08-20T15:50:12.132Z,55.35
2018-08-20T15:52:40.747Z,55.40
2018-08-20T15:55:13.106Z,55.80
2018-08-20T15:57:42.213Z,55.56
2018-08-20T16:00:13.062Z,55.95
2018-08-20T16:02:42.572Z,55.90
2018-08-20T16:05:18.806Z,56.31
2018-08-20T16:07:48.849Z,55.89
2018-08-20T16:10:17.554Z,55.49
2018-08-20T16:12:46.101Z,55.57
2018-08-20T16:15:14.667Z,54.84
2018-08-20T16:17:43.460Z,54.89
2018-08-20T16:20:13.017Z,54.61
2018-08-20T16:22:41.801Z,55.38
2018-08-20T16:25:11.034Z,54.52
2018-08-20T16:27:39.561Z,54.03
2018-08-20T16:30:11.661Z,53.55
2018-08-20T16:32:40.252Z,53.70
2018-08-20T16:35:10.752Z,53.58
2018-08-20T16:37:39.324Z,53.08
2018-08-20T16:40:07.968Z,53.26
2018-08-20T16:42:38.940Z,53.47
2018-08-20T16:45:08.893Z,54.01
2018-08-20T16:47:37.457Z,53.74
2018-08-20T16:50:08.031Z,54.11
2018-08-20T16:52:41.406Z,54.67
2018-08-20T16:55:10.789Z,53.77
2018-08-20T16:57:39.372Z,54.34
2018-08-20T17:00:11.383Z,54.96
2018-08-20T17:02:40.896Z,55.16
2018-08-20T17:05:11.652Z,55.14
2018-08-20T17:07:40.229Z,56.04
2018-08-20T17:10:10.537Z,55.89
2018-08-20T17:12:43.315Z,56.55
2018-08-20T17:15:18.705Z,57.38
2018-08-20T17:17:55.547Z,56.70
2018-08-20T17:20:28.213Z,56.78
2018-08-20T17:23:12.217Z,57.05
2018-08-20T17:25:41.076Z,57.50
2018-08-20T17:28:09.593Z,57.39
2018-08-20T17:30:38.135Z,56.19
2018-08-20T17:33:07.276Z,55.94
2018-08-20T17:35:39.536Z,55.05
2018-08-20T17:38:10.676Z,55.70
2018-08-20T17:40:41.496Z,55.38
2018-08-20T17:43:10.512Z,55.53
2018-08-20T17:45:44.307Z,54.99
2018-08-20T17:48:25.468Z,55.74
2018-08-20T17:50:54.006Z,55.26
2018-08-20T17:53:22.605Z,55.01
2018-08-20T17:55:53.428Z,54.64
2018-08-20T17:58:22.177Z,54.41
2018-08-20T18:00:53.904Z,55.85
2018-08-20T18:03:31.057Z,56.36
2018-08-20T18:06:03.271Z,57.98
2018-08-20T18:08:33.532Z,59.30
2018-08-20T18:11:02.984Z,58.40
2018-08-20T18:13:38.787Z,60.46
2018-08-20T18:16:12.680Z,62.54
2018-08-20T18:18:42.672Z,60.68
2018-08-20T18:21:11.204Z,61.00
2018-08-20T18:23:39.793Z,60.62
2018-08-20T18:26:08.424Z,60.56
2018-08-20T18:28:45.662Z,60.24
2018-08-20T18:31:18.922Z,60.44
2018-08-20T18:33:47.678Z,60.69
2018-08-20T18:36:17.717Z,62.04
2018-08-20T18:38:54.720Z,61.93
2018-08-20T18:41:32.676Z,62.47
2018-08-20T18:44:01.497Z,64.10
2018-08-20T18:46:30.029Z,66.21
2018-08-20T18:48:58.627Z,64.57
2018-08-20T18:51:27.148Z,64.16
2018-08-20T18:53:56.146Z,64.03
2018-08-20T18:56:24.684Z,67.01
2018-08-20T18:58:53.447Z,67.67
2018-08-20T19:01:22.212Z,69.17
2018-08-20T19:03:50.772Z,69.61
2018-08-20T19:06:19.305Z,69.43
2018-08-20T19:08:55.196Z,69.67
2018-08-20T19:11:24.064Z,69.28
2018-08-20T19:13:59.208Z,72.45
2018-08-20T19:16:29.397Z,72.60
2018-08-20T19:18:58.788Z,71.64
2018-08-20T19:21:29.384Z,71.15
2018-08-20T19:23:59.700Z,71.58
2018-08-20T19:26:29.686Z,71.51
2018-08-20T19:28:58.371Z,72.41
2018-08-20T19:31:28.560Z,72.54
2018-08-20T19:33:59.457Z,74.24
2018-08-20T19:36:29.601Z,74.05
2018-08-20T19:38:58.628Z,72.83
2018-08-20T19:41:34.155Z,73.34
2018-08-20T19:44:07.287Z,74.36
2018-08-20T19:46:38.712Z,75.22
2018-08-20T19:49:12.808Z,73.85
2018-08-20T19:51:46.993Z,74.16
2018-08-20T19:54:20.123Z,73.77
2018-08-20T19:56:49.011Z,74.53
2018-08-20T19:59:26.610Z,75.60
2018-08-20T20:02:00.351Z,76.04
2018-08-20T20:04:35.815Z,76.83
2018-08-20T20:07:10.982Z,76.67
2018-08-20T20:09:59.898Z,74.72
2018-08-20T20:12:36.603Z,76.19
2018-08-20T20:15:05.745Z,74.97
2018-08-20T20:17:34.377Z,79.23
2018-08-20T20:20:06.084Z,79.25
2018-08-20T20:22:39.360Z,77.99
2018-08-20T20:25:10.703Z,75.99
2018-08-20T20:27:39.387Z,76.99
2018-08-20T20:30:08.601Z,79.11
2018-08-20T20:32:37.193Z,80.52
2018-08-20T20:35:12.004Z,80.38
2018-08-20T20:37:44.070Z,80.79
2018-08-20T20:40:13.048Z,79.90
2018-08-20T20:42:41.585Z,80.24
2018-08-20T20:45:13.517Z,81.31
2018-08-20T20:47:48.397Z,81.98
2018-08-20T20:50:20.728Z,81.13
2018-08-20T20:52:52.144Z,81.92
2018-08-20T20:55:24.326Z,82.98
2018-08-20T20:57:58.180Z,81.39
2018-08-20T21:00:29.026Z,80.61
2018-08-20T21:03:04.201Z,81.69
2018-08-20T21:05:35.898Z,82.55
2018-08-20T21:08:09.212Z,81.94
2018-08-20T21:10:45.710Z,81.55
2018-08-20T21:13:21.313Z,82.59
2018-08-20T21:15:59.026Z,82.93
2018-08-20T21:18:30.937Z,82.03
2018-08-20T21:21:01.051Z,82.41
2018-08-20T21:23:33.144Z,84.17
2018-08-20T21:26:08.287Z,82.99
2018-08-20T21:28:44.623Z,82.84
2018-08-20T21:31:16.418Z,84.80
2018-08-20T21:33:49.429Z,85.25
2018-08-20T21:36:19.345Z,86.12
2018-08-20T21:38:50.976Z,86.20
2018-08-20T21:41:27.979Z,85.57
2018-08-20T21:43:59.346Z,85.03
2018-08-20T21:46:30.200Z,84.81
2018-08-20T21:49:01.041Z,83.15
2018-08-20T21:51:35.232Z,84.66
2018-08-20T21:54:09.236Z,85.07
2018-08-20T21:56:54.178Z,85.25
2018-08-20T21:59:29.328Z,85.20
2018-08-20T22:02:00.159Z,85.40
2018-08-20T22:04:32.180Z,85.55
2018-08-20T22:07:05.243Z,82.04
2018-08-20T22:09:36.446Z,83.17
2018-08-20T22:12:07.426Z,85.59
2018-08-20T22:14:38.960Z,86.25
2018-08-20T22:17:09.997Z,86.52
2018-08-20T22:19:41.671Z,87.08
2018-08-20T22:22:15.322Z,87.23
2018-08-20T22:24:52.152Z,87.19
2018-08-20T22:27:22.315Z,85.03
2018-08-20T22:29:52.972Z,86.97
2018-08-20T22:32:22.289Z,87.36
2018-08-20T22:34:53.245Z,86.10
2018-08-20T22:37:25.914Z,85.59
2018-08-20T22:40:01.414Z,86.32
2018-08-20T22:42:45.122Z,85.53
2018-08-20T22:45:16.712Z,86.09
2018-08-20T22:47:51.100Z,88.07
2018-08-20T22:50:24.650Z,88.54
2018-08-20T22:52:53.560Z,89.20
2018-08-20T22:55:22.730Z,86.53
2018-08-20T22:58:15.699Z,87.37
2018-08-20T23:00:44.257Z,86.90
2018-08-20T23:03:12.794Z,86.85
2018-08-20T23:05:41.340Z,87.41
2018-08-20T23:08:18.195Z,88.03
2018-08-20T23:10:46.874Z,88.83
2018-08-20T23:13:18.199Z,88.68
2018-08-20T23:15:47.461Z,88.45
2018-08-20T23:18:16.049Z,87.20
2018-08-20T23:20:46.951Z,88.24
2018-08-20T23:23:19.298Z,89.40
2018-08-20T23:25:47.982Z,89.79
2018-08-20T23:28:17.856Z,89.52
2018-08-20T23:30:50.815Z,88.33
2018-08-20T23:33:19.332Z,88.44
2018-08-20T23:35:47.884Z,88.01
2018-08-20T23:38:16.425Z,88.26
2018-08-20T23:40:45.656Z,89.59
2018-08-20T23:43:14.176Z,88.16
2018-08-20T23:45:42.726Z,88.13
2018-08-20T23:48:14.058Z,88.42
2018-08-20T23:50:43.851Z,86.45
2018-08-20T23:53:13.429Z,87.24
2018-08-20T23:55:42.720Z,86.63
2018-08-20T23:58:12.904Z,86.54
